Time;durP1;ratioP1;P1;durP2;ratioP2;P2;SDS_P1;SDS_P2;PMS_P1;PMS_P2;Temp;Humidity;BMP_temperature;BMP_pressure;BME280_temperature;BME280_humidity;BME280_pressure;Samples;Min_cycle;Max_cycle;Signal;HPM_P1;HPM_P2
2022/08/16 00:01:55;;;;;;;13.75;6.28;;;;;;;21.48;nan;99679.63;5006686;28;20085;-72
2022/08/16 00:04:20;;;;;;;10.43;5.82;;;;;;;21.38;nan;99645.06;5005556;28;20405;-71
2022/08/16 00:06:46;;;;;;;6.60;5.47;;;;;;;21.55;nan;99676.44;5006935;28;20120;-72
2022/08/16 00:09:11;;;;;;;17.15;6.10;;;;;;;21.52;nan;99656.44;5008449;28;20026;-71
2022/08/16 00:11:38;;;;;;;6.38;5.50;;;;;;;21.56;nan;99727.03;5007755;28;20046;-71
2022/08/16 00:14:07;;;;;;;12.35;5.43;;;;;;;21.62;nan;99687.47;5009132;28;20030;-72
2022/08/16 00:16:32;;;;;;;12.35;5.60;;;;;;;21.53;nan;99706.25;5008238;28;20033;-72
2022/08/16 00:18:58;;;;;;;7.55;5.93;;;;;;;21.59;nan;99677.38;5009958;28;20038;-71
2022/08/16 00:21:24;;;;;;;9.50;5.95;;;;;;;21.57;nan;99668.88;5008231;28;20034;-74
2022/08/16 00:23:49;;;;;;;7.05;5.35;;;;;;;;;;5009354;28;20373;-72
2022/08/16 00:26:15;;;;;;;7.27;5.77;;;;;;;21.48;nan;99654.69;5007509;28;20030;-71
2022/08/16 00:28:40;;;;;;;10.95;5.70;;;;;;;21.42;nan;99672.81;5008221;28;20046;-73
2022/08/16 00:31:06;;;;;;;10.40;6.03;;;;;;;21.38;nan;99655.78;5008447;28;20029;-72
2022/08/16 00:33:31;;;;;;;7.60;5.50;;;;;;;21.37;nan;99670.28;5008127;28;20050;-72
2022/08/16 00:35:56;;;;;;;7.10;5.90;;;;;;;21.35;nan;99664.44;5006438;28;20045;-72
2022/08/16 00:38:22;;;;;;;8.85;5.95;;;;;;;21.34;nan;99663.66;5007640;28;20026;-74
2022/08/16 00:40:50;;;;;;;7.18;6.10;;;;;;;21.37;nan;99663.03;5006587;28;20044;-71
2022/08/16 00:43:24;;;;;;;10.13;6.30;;;;;;;21.38;nan;99680.69;4989690;28;20033;-72
2022/08/16 00:45:57;;;;;;;6.90;5.43;;;;;;;21.38;nan;99680.69;5004125;28;20064;-72
2022/08/16 00:48:22;;;;;;;7.18;5.80;;;;;;;21.34;nan;99650.28;5005338;28;20499;-72
2022/08/16 00:50:48;;;;;;;7.93;5.43;;;;;;;21.37;nan;99660.34;5004547;28;20045;-72
2022/08/16 00:53:15;;;;;;;8.63;5.88;;;;;;;21.34;nan;99666.34;4990032;28;20041;-71
2022/08/16 00:55:46;;;;;;;8.95;6.75;;;;;;;21.36;nan;99669.50;5006823;28;20041;-71
2022/08/16 00:58:12;;;;;;;7.95;5.45;;;;;;;21.26;nan;99726.00;5007860;28;20495;-73
2022/08/16 01:00:38;;;;;;;9.50;6.45;;;;;;;21.26;nan;99675.13;4986010;28;20045;-72
2022/08/16 01:03:07;;;;;;;9.32;6.15;;;;;;;21.24;nan;99680.81;5008684;28;20395;-73
2022/08/16 01:05:35;;;;;;;8.95;6.43;;;;;;;21.19;nan;99717.66;5007903;28;20037;-72
2022/08/16 01:08:01;;;;;;;9.57;5.88;;;;;;;21.07;nan;99699.53;5006137;28;20030;-73
2022/08/16 01:10:29;;;;;;;8.32;5.78;;;;;;;;;;5007086;28;20026;-71
2022/08/16 01:12:54;;;;;;;10.20;6.80;;;;;;;20.91;nan;99696.50;4989082;28;20395;-71
2022/08/16 01:15:21;;;;;;;10.80;6.43;;;;;;;20.88;nan;99657.00;4991593;28;20038;-73
2022/08/16 01:17:48;;;;;;;8.15;6.15;;;;;;;20.75;nan;99698.03;5005930;28;20042;-72
2022/08/16 01:20:16;;;;;;;9.65;6.43;;;;;;;20.88;nan;99734.59;5007899;28;20053;-71
2022/08/16 01:23:02;;;;;;;7.75;6.05;;;;;;;20.88;nan;99715.88;5007543;28;20060;-73
2022/08/16 01:25:35;;;;;;;8.60;6.15;;;;;;;20.84;nan;99739.00;4989235;28;20048;-71
2022/08/16 01:28:06;;;;;;;9.07;6.43;;;;;;;20.81;nan;99724.34;5007493;28;20380;-72
2022/08/16 01:30:35;;;;;;;9.00;6.45;;;;;;;20.64;nan;99764.41;4992363;28;20575;-72
2022/08/16 01:33:03;;;;;;;7.75;5.88;;;;;;;20.58;nan;99731.63;5011369;28;20124;-72
2022/08/16 01:35:28;;;;;;;9.40;6.68;;;;;;;20.52;nan;99719.47;4993386;28;20516;-71
2022/08/16 01:37:56;;;;;;;9.93;6.18;;;;;;;20.47;nan;99774.97;5005495;28;20050;-72
2022/08/16 01:40:28;;;;;;;8.43;6.60;;;;;;;20.37;nan;99701.13;5011029;28;20038;-72
2022/08/16 01:42:55;;;;;;;9.55;6.15;;;;;;;20.36;nan;99712.94;5009681;28;20033;-72
2022/08/16 01:45:22;;;;;;;7.60;6.13;;;;;;;20.38;nan;99711.53;5011618;28;20079;-71
2022/08/16 01:47:50;;;;;;;8.18;6.25;;;;;;;20.39;nan;99710.44;5012090;28;20128;-71
2022/08/16 01:50:15;;;;;;;10.50;6.32;;;;;;;20.41;nan;99726.19;4992806;28;20038;-72
2022/08/16 01:52:42;;;;;;;7.82;6.18;;;;;;;20.40;nan;99721.94;5010557;28;20060;-71
2022/08/16 01:55:08;;;;;;;10.60;6.50;;;;;;;20.38;nan;99791.75;5009087;28;20097;-72
2022/08/16 01:57:34;;;;;;;9.43;6.75;;;;;;;20.33;nan;99740.31;5010241;28;20026;-72
2022/08/16 02:00:00;;;;;;;9.93;6.43;;;;;;;20.29;nan;99699.22;5010460;28;20040;-74
2022/08/16 02:02:27;;;;;;;8.52;6.47;;;;;;;20.22;nan;99701.53;5011152;28;20056;-72
2022/08/16 02:04:52;;;;;;;9.18;6.35;;;;;;;20.19;nan;99767.09;4993290;28;20041;-72
2022/08/16 02:07:19;;;;;;;12.27;6.80;;;;;;;;;;5010721;28;20092;-73
2022/08/16 02:09:46;;;;;;;12.45;7.30;;;;;;;20.17;nan;99715.81;4991664;28;20030;-72
2022/08/16 02:12:12;;;;;;;8.30;6.88;;;;;;;20.11;nan;99712.50;4987346;28;20049;-72
2022/08/16 02:14:38;;;;;;;9.00;6.50;;;;;;;20.05;nan;99697.66;5008014;28;20084;-71
2022/08/16 02:17:07;;;;;;;9.73;6.72;;;;;;;20.09;nan;99695.19;5007894;28;20069;-73
2022/08/16 02:19:35;;;;;;;;;;;;;;;20.11;nan;99722.38;4977375;28;20068;-72
2022/08/16 02:22:01;;;;;;;9.00;6.50;;;;;;;20.09;nan;99705.88;5006104;28;20260;-72
2022/08/16 02:24:26;;;;;;;10.15;6.35;;;;;;;;;;5003315;28;20030;-72
2022/08/16 02:26:52;;;;;;;8.90;6.38;;;;;;;20.12;nan;99689.22;5010083;28;20042;-73
2022/08/16 02:29:18;;;;;;;7.63;6.20;;;;;;;20.16;nan;99704.34;4994087;28;20042;-72
2022/08/16 02:31:48;;;;;;;12.30;7.40;;;;;;;20.13;nan;99729.00;5009815;28;20029;-72
2022/08/16 02:34:15;;;;;;;8.32;6.97;;;;;;;20.12;nan;99699.91;5009295;28;20053;-72
2022/08/16 02:36:41;;;;;;;9.23;6.75;;;;;;;20.05;nan;99705.69;5008704;28;20484;-73
2022/08/16 02:39:08;;;;;;;8.93;5.88;;;;;;;20.04;nan;99690.75;5008166;28;20046;-73
2022/08/16 02:41:35;;;;;;;10.38;6.78;;;;;;;20.04;nan;99689.94;5010333;28;20040;-73
2022/08/16 02:44:02;;;;;;;10.38;7.75;;;;;;;19.82;nan;99678.16;5008309;28;20042;-72
2022/08/16 02:46:27;;;;;;;11.40;6.68;;;;;;;19.87;nan;99706.66;5009622;28;20038;-73
2022/08/16 02:48:53;;;;;;;12.43;7.00;;;;;;;19.76;nan;99722.94;5010657;28;20034;-73
2022/08/16 02:51:18;;;;;;;10.13;7.10;;;;;;;;;;5009754;28;20498;-72
2022/08/16 02:53:47;;;;;;;8.33;6.53;;;;;;;19.69;nan;99713.75;4992293;28;20069;-72
2022/08/16 02:56:14;;;;;;;10.02;6.95;;;;;;;19.61;nan;99771.34;5008993;28;20144;-73
2022/08/16 02:58:40;;;;;;;12.00;7.55;;;;;;;19.56;nan;99707.31;5008544;28;20048;-73
2022/08/16 03:01:06;;;;;;;14.23;7.72;;;;;;;19.60;nan;99732.34;4992644;28;20125;-72
2022/08/16 03:03:33;;;;;;;9.13;7.30;;;;;;;19.63;nan;99733.63;5008658;28;20042;-72
2022/08/16 03:05:59;;;;;;;11.35;6.85;;;;;;;19.66;nan;99743.72;4989420;28;20129;-72
2022/08/16 03:08:24;;;;;;;11.90;7.20;;;;;;;19.65;nan;99712.75;5009104;28;20026;-68
2022/08/16 03:10:50;;;;;;;9.60;7.03;;;;;;;19.64;nan;99736.00;5008036;28;20141;-68
2022/08/16 03:13:16;;;;;;;9.32;7.25;;;;;;;19.60;nan;99675.47;5011253;28;20669;-72
2022/08/16 03:15:44;;;;;;;12.57;7.35;;;;;;;19.56;nan;99750.06;5008035;28;20042;-72
2022/08/16 03:18:10;;;;;;;11.10;6.70;;;;;;;19.51;nan;99747.50;4988859;28;20045;-71
2022/08/16 03:20:35;;;;;;;11.57;7.40;;;;;;;19.38;nan;99701.06;5009400;28;20026;-71
2022/08/16 03:23:02;;;;;;;14.27;7.28;;;;;;;19.50;nan;99725.34;5008009;28;20132;-72
2022/08/16 03:25:28;;;;;;;9.55;7.00;;;;;;;;;;5008995;28;20065;-72
2022/08/16 03:27:53;;;;;;;10.80;7.68;;;;;;;19.45;nan;99748.72;4991836;28;20084;-73
2022/08/16 03:30:24;;;;;;;10.52;7.45;;;;;;;19.46;nan;99743.06;5008931;28;20025;-72
2022/08/16 03:32:50;;;;;;;11.68;7.97;;;;;;;19.45;nan;99744.16;5010191;28;20038;-73
2022/08/16 03:35:17;;;;;;;8.93;7.10;;;;;;;19.47;nan;99766.00;5006778;28;20088;-71
2022/08/16 03:37:44;;;;;;;10.18;7.30;;;;;;;19.45;nan;99754.84;4991228;28;20034;-72
2022/08/16 03:40:12;;;;;;;13.60;8.35;;;;;;;19.32;nan;99742.28;5009200;28;20030;-72
2022/08/16 03:42:38;;;;;;;10.40;7.72;;;;;;;19.32;nan;99734.28;5008977;28;20034;-70
2022/08/16 03:45:04;;;;;;;9.95;7.82;;;;;;;19.34;nan;99750.78;5006807;28;20369;-73
2022/08/16 03:47:29;;;;;;;11.57;7.50;;;;;;;;;;5006367;28;20030;-72
2022/08/16 03:49:57;;;;;;;13.55;8.40;;;;;;;19.34;nan;99742.78;5008453;28;20092;-73
2022/08/16 03:52:23;;;;;;;11.40;7.95;;;;;;;19.41;nan;99753.06;5009517;28;20041;-72
2022/08/16 03:54:49;;;;;;;10.77;7.88;;;;;;;19.39;nan;99792.63;5008852;28;20030;-72
2022/08/16 03:57:15;;;;;;;10.00;8.05;;;;;;;;;;4992596;28;20088;-72
2022/08/16 03:59:40;;;;;;;13.45;8.57;;;;;;;;;;4986128;28;20041;-73
2022/08/16 04:02:06;;;;;;;10.13;7.78;;;;;;;19.32;nan;99737.75;5008209;28;20045;-72
2022/08/16 04:04:35;;;;;;;11.30;8.18;;;;;;;19.33;nan;99747.34;5007655;28;20116;-73
2022/08/16 04:07:05;;;;;;;13.27;8.88;;;;;;;19.32;nan;99753.78;5008098;28;20034;-73
2022/08/16 04:09:32;;;;;;;16.17;9.45;;;;;;;19.27;nan;99763.75;5007802;28;20586;-72
2022/08/16 04:11:58;;;;;;;13.55;9.23;;;;;;;;;;5009038;28;20038;-73
2022/08/16 04:14:23;;;;;;;15.07;11.10;;;;;;;19.22;nan;99740.63;5006735;28;20060;-72
2022/08/16 04:16:49;;;;;;;14.88;10.88;;;;;;;19.22;nan;99788.66;5005910;28;20472;-72
2022/08/16 04:19:15;;;;;;;15.38;10.93;;;;;;;19.22;nan;99767.31;4990124;28;20046;-73
2022/08/16 04:21:40;;;;;;;16.83;11.18;;;;;;;;;;5006925;28;20072;-73
2022/08/16 04:24:05;;;;;;;16.60;12.40;;;;;;;19.16;nan;99755.19;5008846;28;20140;-72
2022/08/16 04:26:31;;;;;;;15.93;11.98;;;;;;;19.19;nan;99767.13;5007440;28;20314;-68
2022/08/16 04:28:57;;;;;;;18.35;12.32;;;;;;;19.16;nan;99760.50;5001000;28;20141;-67
2022/08/16 04:31:23;;;;;;;17.30;11.98;;;;;;;19.19;nan;99777.81;4988976;28;20034;-67
2022/08/16 04:33:48;;;;;;;20.17;13.27;;;;;;;19.19;nan;99773.25;4990781;28;20034;-68
2022/08/16 04:36:14;;;;;;;15.40;12.63;;;;;;;19.24;nan;99778.50;5006332;28;20059;-68
2022/08/16 04:38:39;;;;;;;18.10;12.52;;;;;;;19.24;nan;99788.38;5001414;28;20073;-72
2022/08/16 04:41:05;;;;;;;18.25;13.32;;;;;;;19.15;nan;99761.59;4985135;28;20041;-72
2022/08/16 04:43:32;;;;;;;20.77;12.18;;;;;;;19.23;nan;99771.59;5007355;28;20046;-71
2022/08/16 04:45:58;;;;;;;16.58;12.63;;;;;;;;;;4987225;28;20038;-68
2022/08/16 04:48:23;;;;;;;17.52;12.10;;;;;;;19.35;nan;99771.06;4986003;28;20061;-68
2022/08/16 04:50:49;;;;;;;16.25;12.73;;;;;;;19.28;nan;99744.78;4986273;28;20768;-67
2022/08/16 04:53:15;;;;;;;16.83;12.35;;;;;;;19.40;nan;99778.97;5004593;28;20041;-68
2022/08/16 04:55:41;;;;;;;18.70;12.43;;;;;;;19.45;nan;99748.72;5005292;28;20068;-68
2022/08/16 04:58:07;;;;;;;15.73;11.98;;;;;;;19.50;nan;99745.94;5007572;28;20058;-68
2022/08/16 05:00:34;;;;;;;17.77;13.13;;;;;;;19.56;nan;99763.41;4989908;28;20034;-67
2022/08/16 05:03:06;;;;;;;17.63;12.57;;;;;;;19.63;nan;99779.81;5007252;28;20030;-69
2022/08/16 05:05:31;;;;;;;16.35;12.20;;;;;;;;;;5009348;28;20044;-68
2022/08/16 05:07:57;;;;;;;17.33;12.65;;;;;;;19.74;nan;99764.41;5011887;28;20042;-70
2022/08/16 05:10:22;;;;;;;21.08;12.43;;;;;;;;;;4977409;28;20490;-73
2022/08/16 05:12:47;;;;;;;16.17;12.60;;;;;;;19.84;nan;99782.88;4990124;28;20034;-73
2022/08/16 05:15:13;;;;;;;18.13;12.88;;;;;;;19.92;nan;99746.63;5008123;28;20354;-72
2022/08/16 05:17:39;;;;;;;20.10;12.02;;;;;;;20.02;nan;99829.25;4991594;28;20044;-72
2022/08/16 05:20:07;;;;;;;19.15;13.00;;;;;;;20.02;nan;99783.81;5010576;28;20080;-72
2022/08/16 05:22:35;;;;;;;19.00;12.00;;;;;;;20.16;nan;99787.22;5009594;28;20038;-72
2022/08/16 05:25:01;;;;;;;16.00;12.18;;;;;;;20.18;nan;99744.13;5009369;28;20044;-74
2022/08/16 05:27:26;;;;;;;17.23;12.80;;;;;;;20.33;nan;99799.13;5009816;28;20251;-72
2022/08/16 05:29:52;;;;;;;20.33;11.60;;;;;;;20.42;nan;99840.06;4993200;28;20516;-72
2022/08/16 05:32:17;;;;;;;13.80;11.70;;;;;;;20.48;nan;99780.03;5002005;28;20034;-72
2022/08/16 05:34:42;;;;;;;17.50;11.38;;;;;;;20.58;nan;99760.28;5011129;28;20056;-72
2022/08/16 05:37:08;;;;;;;15.43;11.30;;;;;;;20.62;nan;99779.19;5003771;28;20112;-72
2022/08/16 05:39:33;;;;;;;22.35;11.75;;;;;;;20.66;nan;99759.50;5009232;28;20030;-72
2022/08/16 05:41:59;;;;;;;15.73;11.25;;;;;;;20.75;nan;99789.78;5010303;28;20057;-71
2022/08/16 05:44:25;;;;;;;16.23;11.65;;;;;;;20.82;nan;99784.00;4991364;28;20034;-71
2022/08/16 05:46:53;;;;;;;16.52;12.00;;;;;;;20.90;nan;99780.59;5010117;28;20125;-72
2022/08/16 05:49:19;;;;;;;13.98;10.75;;;;;;;20.93;nan;99822.78;5005378;28;20069;-71
2022/08/16 05:51:46;;;;;;;16.92;11.52;;;;;;;21.02;nan;99778.09;5008729;28;20508;-71
2022/08/16 05:54:16;;;;;;;15.63;11.68;;;;;;;21.11;nan;99777.34;5007440;28;20100;-72
2022/08/16 05:56:44;;;;;;;18.45;11.70;;;;;;;21.16;nan;99777.97;5006786;28;20138;-74
2022/08/16 05:59:11;;;;;;;16.08;11.38;;;;;;;21.25;nan;99784.16;5006622;28;20034;-71
2022/08/16 06:01:37;;;;;;;14.43;11.27;;;;;;;21.33;nan;99768.41;4994254;28;20571;-71
2022/08/16 06:04:02;;;;;;;16.35;12.70;;;;;;;21.35;nan;99745.56;5011850;28;20048;-71
2022/08/16 06:06:28;;;;;;;17.17;11.23;;;;;;;21.46;nan;99751.47;5010642;28;20030;-69
2022/08/16 06:08:53;;;;;;;14.50;11.18;;;;;;;21.53;nan;99756.34;4975041;28;20030;-68
2022/08/16 06:11:19;;;;;;;18.95;11.43;;;;;;;21.60;nan;99812.94;5005291;28;20037;-69
2022/08/16 06:13:46;;;;;;;13.05;11.27;;;;;;;21.72;nan;99815.00;5007288;28;20030;-68
2022/08/16 06:16:11;;;;;;;14.82;10.77;;;;;;;21.78;nan;99830.59;5001168;28;20038;-67
2022/08/16 06:18:37;;;;;;;13.40;10.95;;;;;;;21.91;nan;99777.16;5006638;28;20109;-69
2022/08/16 06:21:02;;;;;;;15.63;11.45;;;;;;;21.92;nan;99817.06;5008451;28;21225;-73
2022/08/16 06:23:28;;;;;;;16.27;11.48;;;;;;;22.03;nan;99775.44;5008733;28;20559;-70
2022/08/16 06:25:53;;;;;;;15.93;10.60;;;;;;;22.06;nan;99718.50;5008699;28;20041;-73
2022/08/16 06:28:19;;;;;;;14.23;10.85;;;;;;;22.19;nan;99758.84;5006405;28;20046;-68
2022/08/16 06:30:45;;;;;;;14.52;10.50;;;;;;;22.22;nan;99763.59;5007962;28;20033;-70
2022/08/16 06:33:16;;;;;;;16.27;10.80;;;;;;;22.35;nan;99777.94;5004740;28;20040;-74
2022/08/16 06:35:41;;;;;;;15.02;11.10;;;;;;;22.37;nan;99765.00;4990528;28;20061;-73
2022/08/16 06:38:07;;;;;;;14.43;10.80;;;;;;;22.39;nan;99731.41;5005582;28;20492;-69
2022/08/16 06:40:32;;;;;;;18.23;10.77;;;;;;;;;;5008976;28;20360;-74
2022/08/16 06:42:58;;;;;;;13.73;10.52;;;;;;;22.64;nan;99743.13;5008143;28;20030;-69
2022/08/16 06:45:24;;;;;;;14.52;10.23;;;;;;;22.81;nan;99773.69;5008051;28;20036;-73
2022/08/16 06:47:50;;;;;;;18.50;10.55;;;;;;;22.84;nan;99770.38;4987212;28;20472;-68
2022/08/16 06:50:16;;;;;;;15.43;10.00;;;;;;;22.95;nan;99766.22;4983117;28;20023;-73
2022/08/16 06:52:42;;;;;;;11.48;9.75;;;;;;;22.93;nan;99766.53;5008466;28;20045;-69
2022/08/16 06:55:10;;;;;;;14.10;10.32;;;;;;;23.08;nan;99780.56;5008573;28;20730;-69
2022/08/16 06:57:36;;;;;;;11.45;9.50;;;;;;;23.22;nan;99788.38;4985690;28;20042;-69
2022/08/16 07:00:10;;;;;;;11.48;9.43;;;;;;;23.29;nan;99778.69;5002790;28;20044;-67
2022/08/16 07:02:36;;;;;;;17.40;10.10;;;;;;;23.39;nan;99779.44;5009896;28;20037;-67
2022/08/16 07:05:01;;;;;;;14.23;9.93;;;;;;;;;;5007258;28;20037;-68
2022/08/16 07:07:27;;;;;;;14.07;9.50;;;;;;;23.55;nan;99791.97;5008139;28;20045;-72
2022/08/16 07:09:52;;;;;;;12.10;9.15;;;;;;;23.61;nan;99797.97;5008804;28;20488;-69
2022/08/16 07:12:18;;;;;;;14.10;9.88;;;;;;;23.68;nan;99808.16;4990197;28;20389;-71
2022/08/16 07:14:43;;;;;;;14.90;9.45;;;;;;;23.80;nan;99776.03;5009912;28;20026;-69
2022/08/16 07:17:09;;;;;;;14.75;9.23;;;;;;;23.91;nan;99798.69;5004488;28;20526;-68
2022/08/16 07:19:34;;;;;;;12.50;9.65;;;;;;;23.96;nan;99763.53;5007726;28;20092;-68
2022/08/16 07:22:01;;;;;;;15.02;9.10;;;;;;;;;;5010455;28;20084;-68
2022/08/16 07:24:28;;;;;;;13.10;9.20;;;;;;;24.11;nan;99820.53;5006312;28;20040;-69
2022/08/16 07:26:54;;;;;;;13.40;9.13;;;;;;;24.23;nan;99763.28;4988697;28;20149;-68
2022/08/16 07:29:19;;;;;;;11.43;9.18;;;;;;;24.30;nan;99764.34;5008258;28;20459;-68
2022/08/16 07:31:45;;;;;;;14.60;8.80;;;;;;;24.37;nan;99782.63;5007224;28;20033;-68
2022/08/16 07:34:10;;;;;;;11.07;8.75;;;;;;;24.48;nan;99778.41;5006576;28;20045;-68
2022/08/16 07:36:36;;;;;;;13.15;8.95;;;;;;;24.56;nan;99795.59;4993102;28;20376;-72
2022/08/16 07:39:01;;;;;;;15.98;9.27;;;;;;;24.62;nan;99786.19;4986258;28;20065;-72
2022/08/16 07:41:27;;;;;;;11.82;9.00;;;;;;;24.65;nan;99782.81;5007237;28;20034;-71
2022/08/16 07:43:53;;;;;;;21.88;9.10;;;;;;;24.72;nan;99752.66;4972561;28;20459;-70
2022/08/16 07:46:18;;;;;;;10.32;8.68;;;;;;;24.80;nan;99773.28;5006590;28;20056;-72
2022/08/16 07:48:43;;;;;;;14.02;8.65;;;;;;;24.88;nan;99782.38;5005440;28;20408;-71
2022/08/16 07:51:09;;;;;;;12.25;8.93;;;;;;;24.97;nan;99718.41;5008676;28;20034;-71
2022/08/16 07:53:35;;;;;;;11.30;8.20;;;;;;;25.07;nan;99809.56;5007931;28;20057;-72
2022/08/16 07:56:00;;;;;;;13.50;8.32;;;;;;;25.05;nan;99788.34;4989117;28;20564;-71
2022/08/16 07:58:28;;;;;;;12.48;8.55;;;;;;;25.17;nan;99766.03;4992569;28;20064;-71
2022/08/16 08:00:54;;;;;;;12.30;8.48;;;;;;;25.25;nan;99772.41;5006924;28;20480;-73
2022/08/16 08:03:19;;;;;;;14.05;8.85;;;;;;;25.37;nan;99806.66;5009029;28;20045;-71
2022/08/16 08:05:44;;;;;;;12.00;8.25;;;;;;;25.45;nan;99840.78;5008458;28;20072;-72
2022/08/16 08:08:10;;;;;;;10.55;8.63;;;;;;;25.56;nan;99796.06;5010020;28;20026;-71
2022/08/16 08:10:35;;;;;;;10.38;8.15;;;;;;;25.61;nan;99795.81;4986538;28;20451;-72
2022/08/16 08:13:01;;;;;;;9.50;7.80;;;;;;;25.63;nan;99777.41;5005402;28;20045;-71
2022/08/16 08:15:27;;;;;;;11.63;7.63;;;;;;;25.77;nan;99778.94;5005377;28;20030;-72
2022/08/16 08:17:53;;;;;;;8.60;7.28;;;;;;;25.76;nan;99791.63;5007287;28;20037;-72
2022/08/16 08:20:21;;;;;;;10.52;7.80;;;;;;;25.87;nan;99792.75;5009523;28;20037;-72
2022/08/16 08:22:48;;;;;;;10.27;7.47;;;;;;;25.96;nan;99795.31;5006629;28;20038;-72
2022/08/16 08:25:14;;;;;;;8.52;7.63;;;;;;;26.06;nan;99802.13;5007982;28;20076;-72
2022/08/16 08:27:41;;;;;;;10.20;7.63;;;;;;;26.18;nan;99806.69;5007857;28;20053;-72
2022/08/16 08:30:09;;;;;;;11.13;7.60;;;;;;;26.27;nan;99794.63;5007117;28;20034;-68
2022/08/16 08:32:35;;;;;;;9.60;7.43;;;;;;;26.31;nan;99735.31;5005960;28;20061;-72
2022/08/16 08:35:01;;;;;;;11.23;7.72;;;;;;;26.48;nan;99783.59;5005790;28;20502;-71
2022/08/16 08:37:26;;;;;;;10.15;7.55;;;;;;;26.53;nan;99825.75;5005188;28;20030;-71
2022/08/16 08:39:52;;;;;;;9.50;7.28;;;;;;;26.63;nan;99790.16;5007649;28;20042;-71
2022/08/16 08:42:18;;;;;;;9.45;7.18;;;;;;;26.67;nan;99788.34;5008706;28;20032;-72
2022/08/16 08:44:43;;;;;;;11.57;7.50;;;;;;;26.76;nan;99780.06;4987632;28;20034;-70
2022/08/16 08:47:09;;;;;;;9.18;6.90;;;;;;;26.86;nan;99773.34;4991809;28;20065;-69
2022/08/16 08:49:35;;;;;;;9.82;7.40;;;;;;;26.95;nan;99795.56;5005866;28;20029;-69
2022/08/16 08:52:02;;;;;;;13.38;7.15;;;;;;;27.03;nan;99794.59;5005125;28;20030;-71
2022/08/16 08:54:28;;;;;;;9.25;6.88;;;;;;;27.14;nan;99790.22;5005116;28;20092;-68
2022/08/16 08:56:53;;;;;;;11.05;6.78;;;;;;;27.31;nan;99780.19;5003419;28;20546;-69
2022/08/16 08:59:19;;;;;;;10.05;6.88;;;;;;;27.36;nan;99805.00;5003536;28;20432;-69
2022/08/16 09:01:46;;;;;;;7.03;6.32;;;;;;;27.44;nan;99802.47;5004342;28;20109;-70
2022/08/16 09:04:12;;;;;;;8.30;6.65;;;;;;;27.45;nan;99794.00;4989735;28;20133;-69
2022/08/16 09:06:37;;;;;;;11.43;7.40;;;;;;;27.62;nan;99783.94;5011636;28;20053;-70
2022/08/16 09:09:04;;;;;;;9.23;6.20;;;;;;;27.76;nan;99797.75;5006257;28;20052;-69
2022/08/16 09:11:30;;;;;;;7.25;6.20;;;;;;;27.76;nan;99820.19;5005177;28;20452;-69
2022/08/16 09:13:55;;;;;;;8.43;6.18;;;;;;;27.89;nan;99847.13;4973680;28;20040;-70
2022/08/16 09:16:21;;;;;;;7.68;6.10;;;;;;;27.96;nan;99852.69;5002044;28;20694;-68
2022/08/16 09:18:46;;;;;;;7.60;6.43;;;;;;;28.07;nan;99804.19;5008216;28;20034;-68
2022/08/16 09:21:13;;;;;;;9.63;6.65;;;;;;;28.05;nan;99780.19;5005144;28;20069;-68
2022/08/16 09:23:38;;;;;;;7.22;5.57;;;;;;;28.26;nan;99797.97;5008707;28;20092;-69
2022/08/16 09:26:09;;;;;;;10.38;5.90;;;;;;;28.34;nan;99799.66;4989567;28;20034;-69
2022/08/16 09:28:36;;;;;;;8.52;6.22;;;;;;;28.41;nan;99802.50;5003903;28;20462;-70
2022/08/16 09:31:03;;;;;;;8.57;5.97;;;;;;;28.49;nan;99806.13;5003508;28;20124;-69
2022/08/16 09:33:29;;;;;;;8.10;6.53;;;;;;;28.59;nan;99814.47;5005770;28;20045;-68
2022/08/16 09:35:54;;;;;;;7.97;6.28;;;;;;;28.67;nan;99809.94;5004921;28;20029;-69
2022/08/16 09:38:21;;;;;;;8.63;6.22;;;;;;;28.75;nan;99789.16;5004032;28;20050;-67
2022/08/16 09:40:46;;;;;;;7.07;5.35;;;;;;;28.86;nan;99811.81;5002529;28;20034;-69
2022/08/16 09:43:16;;;;;;;7.15;5.13;;;;;;;28.92;nan;99796.78;5003941;28;20092;-69
2022/08/16 09:45:42;;;;;;;7.93;5.20;;;;;;;29.04;nan;99841.88;5006934;28;20803;-69
2022/08/16 09:48:09;;;;;;;7.82;5.38;;;;;;;29.11;nan;99768.81;5005647;28;20030;-70
2022/08/16 09:50:35;;;;;;;8.32;5.82;;;;;;;29.18;nan;99833.22;5010724;28;20038;-68
2022/08/16 09:53:03;;;;;;;6.32;5.72;;;;;;;29.25;nan;99798.84;5009468;28;20046;-68
2022/08/16 09:55:29;;;;;;;6.37;5.23;;;;;;;29.28;nan;99794.63;4990244;28;20034;-68
2022/08/16 09:57:56;;;;;;;6.72;5.30;;;;;;;29.41;nan;99811.50;5009265;28;20703;-68
2022/08/16 10:00:25;;;;;;;5.50;4.70;;;;;;;29.50;nan;99795.72;5011726;28;20116;-67
2022/08/16 10:02:52;;;;;;;6.43;4.85;;;;;;;29.53;nan;99788.78;4991662;28;20061;-70
2022/08/16 10:05:18;;;;;;;6.43;5.28;;;;;;;29.51;nan;99791.06;5007464;28;20029;-68
2022/08/16 10:07:46;;;;;;;6.15;5.20;;;;;;;29.46;nan;99770.47;5008026;28;20040;-67
2022/08/16 10:10:13;;;;;;;6.65;5.35;;;;;;;29.57;nan;99792.31;5009967;28;20038;-68
2022/08/16 10:15:24;;;;;;;5.38;4.30;;;;;;;29.76;nan;99856.53;5010830;28;20129;-68
2022/08/16 10:17:53;;;;;;;6.85;4.80;;;;;;;29.75;nan;99763.50;5010819;28;20042;-71
2022/08/16 10:20:19;;;;;;;7.15;5.13;;;;;;;29.87;nan;99814.81;5007623;28;20039;-69
2022/08/16 10:22:45;;;;;;;6.68;4.80;;;;;;;29.92;nan;99783.84;5010753;28;20022;-70
2022/08/16 10:25:12;;;;;;;5.88;5.00;;;;;;;30.03;nan;99816.56;5007383;28;20033;-70
2022/08/16 10:27:37;;;;;;;7.43;5.28;;;;;;;30.05;nan;99784.34;5007318;28;20129;-70
2022/08/16 10:30:06;;;;;;;6.82;5.30;;;;;;;30.09;nan;99768.91;5007679;28;20095;-68
2022/08/16 10:32:33;;;;;;;5.47;4.97;;;;;;;30.12;nan;99789.88;5011263;28;20085;-70
2022/08/16 10:34:59;;;;;;;6.38;4.55;;;;;;;30.14;nan;99797.66;5011316;28;20062;-70
2022/08/16 10:37:25;;;;;;;7.25;4.53;;;;;;;30.24;nan;99789.63;4992004;28;20560;-70
2022/08/16 10:39:51;;;;;;;5.70;5.03;;;;;;;30.34;nan;99787.41;5010904;28;20038;-69
2022/08/16 10:42:16;;;;;;;6.65;4.90;;;;;;;30.46;nan;99787.91;5011380;28;20039;-69
2022/08/16 10:44:42;;;;;;;4.93;4.32;;;;;;;30.50;nan;99764.28;5010407;28;20030;-70
2022/08/16 10:47:08;;;;;;;6.45;4.05;;;;;;;30.68;nan;99780.72;5009484;28;20128;-72
2022/08/16 10:49:35;;;;;;;4.78;4.25;;;;;;;30.79;nan;99793.59;5011765;28;20465;-69
2022/08/16 10:52:01;;;;;;;5.63;3.95;;;;;;;30.85;nan;99790.19;5010223;28;20052;-70
2022/08/16 10:54:26;;;;;;;6.32;4.53;;;;;;;30.87;nan;99819.75;5009565;28;20480;-70
2022/08/16 10:56:54;;;;;;;6.03;4.72;;;;;;;30.88;nan;99783.22;5008926;28;20061;-69
2022/08/16 10:59:21;;;;;;;6.20;4.65;;;;;;;30.88;nan;99784.00;5005675;28;20045;-69
2022/08/16 11:01:46;;;;;;;6.53;4.70;;;;;;;30.97;nan;99819.03;4984098;28;20061;-68
2022/08/16 11:04:13;;;;;;;7.28;4.40;;;;;;;31.08;nan;99778.31;5009369;28;20065;-69
2022/08/16 11:06:39;;;;;;;6.18;4.30;;;;;;;31.20;nan;99769.84;5008967;28;20032;-69
2022/08/16 11:09:05;;;;;;;5.40;4.45;;;;;;;31.33;nan;99786.63;5007135;28;20384;-69
2022/08/16 11:11:30;;;;;;;6.18;4.68;;;;;;;31.40;nan;99754.03;5007233;28;20026;-69
2022/08/16 11:13:55;;;;;;;8.52;4.25;;;;;;;31.43;nan;99763.38;5009704;28;20026;-68
2022/08/16 11:16:21;;;;;;;6.47;4.50;;;;;;;31.48;nan;99766.50;4992587;28;20038;-72
2022/08/16 11:18:46;;;;;;;5.10;4.60;;;;;;;31.57;nan;99771.59;4993095;28;20038;-72
2022/08/16 11:21:13;;;;;;;6.53;4.05;;;;;;;31.57;nan;99753.31;5006232;28;20083;-70
2022/08/16 11:23:39;;;;;;;8.00;4.25;;;;;;;31.48;nan;99752.91;5007266;28;20046;-70
2022/08/16 11:26:05;;;;;;;6.90;4.55;;;;;;;31.38;nan;99765.25;4991796;28;20040;-69
2022/08/16 11:28:32;;;;;;;5.38;4.43;;;;;;;31.34;nan;99752.81;5004966;28;20037;-69
2022/08/16 11:30:58;;;;;;;8.00;4.68;;;;;;;31.37;nan;99749.34;4992936;28;20029;-70
2022/08/16 11:33:24;;;;;;;7.47;4.70;;;;;;;31.30;nan;99801.78;5005144;28;20038;-69
2022/08/16 11:35:50;;;;;;;5.03;4.07;;;;;;;31.16;nan;99717.38;5005846;28;20034;-72
2022/08/16 11:38:19;;;;;;;5.45;4.20;;;;;;;31.24;nan;99746.16;5007297;28;20042;-72
2022/08/16 11:40:48;;;;;;;5.60;4.65;;;;;;;31.30;nan;99747.34;4986559;28;20030;-73
2022/08/16 11:43:16;;;;;;;7.95;4.30;;;;;;;31.34;nan;99733.75;5005755;28;20118;-72
2022/08/16 11:45:42;;;;;;;5.97;4.50;;;;;;;31.41;nan;99743.94;5006184;28;20041;-69
2022/08/16 11:48:08;;;;;;;5.70;4.70;;;;;;;31.43;nan;99753.28;5007469;28;20034;-69
2022/08/16 11:50:35;;;;;;;5.10;4.20;;;;;;;31.38;nan;99738.06;4991563;28;20328;-68